createdAt,value
2022-10-18T00:01:00.246Z,14.10
2022-10-18T00:03:45.600Z,15.45
2022-10-18T00:06:30.959Z,12.40
2022-10-18T00:09:16.140Z,14.32
2022-10-18T00:12:01.934Z,11.23
2022-10-18T00:14:50.700Z,13.85
2022-10-18T00:17:39.806Z,14.95
2022-10-18T00:20:28.341Z,14.07
2022-10-18T00:23:13.611Z,14.35
2022-10-18T00:26:08.410Z,14.02
2022-10-18T00:28:57.063Z,9.85
2022-10-18T00:31:43.659Z,14.10
2022-10-18T00:34:29.177Z,11.02
2022-10-18T00:37:14.275Z,15.48
2022-10-18T00:39:59.508Z,13.95
2022-10-18T00:42:44.689Z,10.05
2022-10-18T00:45:30.218Z,12.82
2022-10-18T00:48:17.925Z,13.75
2022-10-18T00:51:03.348Z,10.73
2022-10-18T00:53:49.282Z,14.52
2022-10-18T00:56:34.933Z,11.82
2022-10-18T00:59:21.346Z,13.98
2022-10-18T01:02:07.882Z,15.05
2022-10-18T01:04:53.423Z,10.63
2022-10-18T01:08:03.742Z,15.35
2022-10-18T01:11:00.385Z,11.45
2022-10-18T01:14:24.324Z,15.18
2022-10-18T01:17:36.008Z,21.42
2022-10-18T01:21:01.901Z,14.65
2022-10-18T01:24:24.487Z,14.57
2022-10-18T01:27:24.648Z,16.50
2022-10-18T01:30:38.117Z,21.90
2022-10-18T01:33:50.918Z,15.88
2022-10-18T01:36:40.431Z,14.32
2022-10-18T01:39:29.816Z,15.27
2022-10-18T01:42:19.984Z,17.75
2022-10-18T01:45:08.053Z,15.63
2022-10-18T01:47:54.580Z,16.65
2022-10-18T01:50:40.366Z,14.98
2022-10-18T01:53:33.456Z,18.08
2022-10-18T01:56:18.751Z,24.35
2022-10-18T01:59:41.143Z,14.65
2022-10-18T02:03:00.365Z,17.40
2022-10-18T02:05:58.804Z,18.52
2022-10-18T02:08:52.284Z,18.58
2022-10-18T02:11:39.694Z,17.58
2022-10-18T02:14:25.758Z,18.95
2022-10-18T02:17:12.954Z,14.73
2022-10-18T02:20:01.045Z,15.57
2022-10-18T02:22:48.991Z,16.00
2022-10-18T02:25:36.112Z,16.13
2022-10-18T02:28:21.943Z,16.00
2022-10-18T02:31:10.331Z,14.50
2022-10-18T02:34:07.366Z,15.85
2022-10-18T02:36:53.781Z,13.55
2022-10-18T02:39:57.670Z,16.83
2022-10-18T02:42:54.034Z,16.25
2022-10-18T02:45:39.828Z,21.02
2022-10-18T02:48:25.255Z,15.43
2022-10-18T02:51:10.964Z,15.10
2022-10-18T02:53:56.045Z,19.30
2022-10-18T02:56:41.600Z,15.75
2022-10-18T02:59:27.105Z,18.33
2022-10-18T03:02:12.483Z,18.23
2022-10-18T03:04:58.079Z,19.55
2022-10-18T03:07:43.220Z,16.98
2022-10-18T03:10:28.373Z,13.68
2022-10-18T03:13:13.982Z,19.08
2022-10-18T03:16:00.101Z,19.73
2022-10-18T03:18:45.421Z,15.05
2022-10-18T03:21:30.601Z,15.75
2022-10-18T03:24:15.971Z,16.55
2022-10-18T03:27:01.191Z,16.40
2022-10-18T03:29:46.669Z,16.60
2022-10-18T03:32:32.089Z,19.58
2022-10-18T03:35:17.317Z,13.90
2022-10-18T03:38:02.603Z,11.90
2022-10-18T03:40:47.946Z,12.85
2022-10-18T03:43:33.459Z,13.52
2022-10-18T03:46:18.669Z,13.77
2022-10-18T03:49:04.142Z,12.25
2022-10-18T03:51:49.373Z,11.77
2022-10-18T03:54:34.686Z,13.70
2022-10-18T03:57:19.892Z,14.07
2022-10-18T04:00:05.961Z,14.60
2022-10-18T04:02:57.306Z,13.52
2022-10-18T04:05:42.609Z,14.45
2022-10-18T04:08:27.706Z,17.48
2022-10-18T04:11:13.087Z,11.23
2022-10-18T04:13:58.264Z,9.73
2022-10-18T04:16:43.478Z,10.52
2022-10-18T04:19:28.880Z,10.93
2022-10-18T04:22:14.377Z,13.68
2022-10-18T04:24:59.705Z,14.65
2022-10-18T04:27:44.890Z,14.23
2022-10-18T04:30:30.242Z,12.70
2022-10-18T04:33:15.753Z,12.90
2022-10-18T04:36:01.238Z,12.02
2022-10-18T04:38:47.008Z,15.50
2022-10-18T04:41:32.382Z,16.70
2022-10-18T04:44:17.582Z,15.98
2022-10-18T04:47:02.710Z,16.42
2022-10-18T04:49:48.054Z,17.95
2022-10-18T04:52:33.373Z,11.57
2022-10-18T04:55:18.508Z,18.77
2022-10-18T04:58:04.001Z,14.57
2022-10-18T05:00:50.293Z,13.85
2022-10-18T05:03:35.510Z,15.95
2022-10-18T05:06:21.634Z,18.35
2022-10-18T05:09:07.230Z,14.05
2022-10-18T05:11:52.487Z,14.30
2022-10-18T05:14:38.121Z,14.20
2022-10-18T05:17:23.486Z,15.55
2022-10-18T05:20:09.578Z,12.93
2022-10-18T05:22:54.722Z,12.13
2022-10-18T05:25:41.169Z,15.20
2022-10-18T05:28:42.145Z,13.02
2022-10-18T05:31:27.635Z,12.93
2022-10-18T05:34:12.928Z,12.10
2022-10-18T05:36:58.537Z,23.65
2022-10-18T05:39:43.879Z,16.08
2022-10-18T05:42:29.546Z,13.43
2022-10-18T05:45:14.918Z,14.95
2022-10-18T05:48:00.468Z,14.68
2022-10-18T05:50:46.197Z,17.42
2022-10-18T05:53:36.615Z,15.93
2022-10-18T05:56:22.267Z,20.92
2022-10-18T05:59:12.022Z,35.08
2022-10-18T06:01:57.277Z,34.08
2022-10-18T06:04:42.710Z,24.45
2022-10-18T06:07:31.623Z,19.67
2022-10-18T06:10:17.094Z,15.60
2022-10-18T06:13:02.823Z,22.08
2022-10-18T06:15:48.102Z,13.00
2022-10-18T06:18:36.198Z,15.57
2022-10-18T06:21:23.807Z,15.65
2022-10-18T06:24:09.433Z,16.35
2022-10-18T06:26:54.850Z,14.27
2022-10-18T06:29:39.966Z,14.38
2022-10-18T06:32:25.138Z,14.13
2022-10-18T06:35:10.231Z,17.70
2022-10-18T06:37:55.681Z,11.70
2022-10-18T06:40:40.779Z,10.43
2022-10-18T06:43:26.752Z,13.95
2022-10-18T06:46:12.152Z,24.80
2022-10-18T06:48:57.745Z,29.58
2022-10-18T06:51:43.715Z,27.45
2022-10-18T06:54:28.758Z,24.23
2022-10-18T06:57:13.959Z,21.30
2022-10-18T06:59:59.014Z,22.58
2022-10-18T07:02:44.166Z,21.13
2022-10-18T07:05:29.599Z,19.38
2022-10-18T07:08:14.975Z,29.63
2022-10-18T07:11:00.501Z,23.45
2022-10-18T07:13:46.010Z,28.50
2022-10-18T07:16:33.108Z,25.35
2022-10-18T07:19:18.771Z,23.52
2022-10-18T07:22:04.309Z,21.75
2022-10-18T07:24:49.567Z,27.52
2022-10-18T07:27:39.169Z,27.20
2022-10-18T07:30:24.676Z,22.35
2022-10-18T07:33:10.018Z,28.77
2022-10-18T07:35:55.148Z,25.05
2022-10-18T07:38:41.126Z,19.55
2022-10-18T07:41:26.822Z,21.77
2022-10-18T07:44:12.450Z,27.73
2022-10-18T07:46:58.072Z,32.03
2022-10-18T07:49:43.290Z,20.73
2022-10-18T07:52:28.474Z,17.73
2022-10-18T07:55:13.897Z,19.13
2022-10-18T07:58:00.284Z,12.18
2022-10-18T08:00:45.466Z,10.10
2022-10-18T08:03:31.242Z,15.68
2022-10-18T08:06:18.810Z,15.45
2022-10-18T08:09:04.521Z,14.82
2022-10-18T08:11:49.455Z,17.58
2022-10-18T08:14:34.987Z,17.77
2022-10-18T08:17:20.363Z,30.77
2022-10-18T08:20:12.465Z,21.35
2022-10-18T08:23:04.726Z,15.15
2022-10-18T08:25:50.145Z,14.57
2022-10-18T08:28:36.755Z,30.88
2022-10-18T08:31:22.318Z,20.00
2022-10-18T08:34:07.721Z,17.63
2022-10-18T08:36:52.888Z,20.23
2022-10-18T08:39:38.143Z,23.60
2022-10-18T08:43:03.815Z,15.88
2022-10-18T08:45:50.884Z,16.08
2022-10-18T08:48:41.393Z,14.68
2022-10-18T08:51:39.418Z,22.13
2022-10-18T08:54:54.136Z,15.38
2022-10-18T08:57:39.709Z,16.67
2022-10-18T09:00:30.690Z,16.17
2022-10-18T09:03:37.797Z,19.73
2022-10-18T09:06:29.202Z,18.52
2022-10-18T09:09:34.514Z,15.40
2022-10-18T09:12:32.350Z,16.35
2022-10-18T09:15:47.450Z,12.30
2022-10-18T09:18:38.890Z,16.33
2022-10-18T09:21:48.355Z,10.55
2022-10-18T09:27:37.431Z,16.85
2022-10-18T09:30:33.645Z,31.10
2022-10-18T09:33:39.062Z,29.13
2022-10-18T09:36:27.623Z,15.75
2022-10-18T09:39:25.406Z,14.70
2022-10-18T09:42:32.025Z,9.85
2022-10-18T09:45:29.252Z,11.07
2022-10-18T09:48:24.084Z,14.10
2022-10-18T09:51:17.643Z,12.60
2022-10-18T09:54:12.130Z,13.18
2022-10-18T09:56:57.342Z,10.13
2022-10-18T09:59:45.830Z,14.20
2022-10-18T10:02:31.162Z,10.75
2022-10-18T10:05:16.353Z,12.30
2022-10-18T10:08:02.815Z,13.50
2022-10-18T10:10:48.508Z,26.52
2022-10-18T10:13:33.974Z,16.33
2022-10-18T10:16:19.234Z,13.45
2022-10-18T10:19:04.616Z,16.65
2022-10-18T10:21:53.244Z,14.68
2022-10-18T10:24:49.418Z,19.57
2022-10-18T10:27:43.393Z,19.58
2022-10-18T10:30:35.692Z,20.73
2022-10-18T10:33:32.578Z,20.10
2022-10-18T10:36:20.012Z,16.55
2022-10-18T10:39:18.813Z,15.82
2022-10-18T10:42:05.883Z,14.23
2022-10-18T10:44:55.322Z,15.90
2022-10-18T10:47:40.483Z,17.48
2022-10-18T10:50:28.383Z,26.02
2022-10-18T10:53:38.539Z,20.83
2022-10-18T10:56:30.171Z,15.75
2022-10-18T10:59:20.380Z,18.15
2022-10-18T11:02:18.097Z,23.17
2022-10-18T11:05:29.196Z,25.60
2022-10-18T11:08:43.286Z,17.27
2022-10-18T11:11:35.061Z,19.23
2022-10-18T11:14:27.235Z,19.20
2022-10-18T11:17:34.929Z,19.25
2022-10-18T11:20:36.816Z,14.95
2022-10-18T11:23:30.064Z,13.95
2022-10-18T11:26:35.200Z,15.75
2022-10-18T11:29:47.902Z,15.38
2022-10-18T11:33:10.913Z,16.88
2022-10-18T11:36:56.232Z,13.80
2022-10-18T11:40:25.499Z,15.32
2022-10-18T11:43:30.071Z,15.52
2022-10-18T11:46:24.027Z,15.77
2022-10-18T11:52:29.415Z,13.40
2022-10-18T11:55:54.245Z,15.35
2022-10-18T11:58:51.325Z,13.32
2022-10-18T12:01:36.897Z,13.40
2022-10-18T12:04:26.034Z,9.90
2022-10-18T12:07:17.935Z,13.90
2022-10-18T12:10:09.723Z,27.77
2022-10-18T12:13:02.146Z,14.13
2022-10-18T12:15:47.558Z,11.23
2022-10-18T12:18:36.031Z,11.80
2022-10-18T12:21:25.478Z,12.60
2022-10-18T12:24:18.335Z,10.93
2022-10-18T12:27:04.641Z,9.95
2022-10-18T12:30:11.067Z,11.85
2022-10-18T12:33:26.733Z,9.27
2022-10-18T12:36:22.040Z,11.25
2022-10-18T12:39:32.463Z,14.05
2022-10-18T12:42:40.237Z,9.95
2022-10-18T12:45:37.423Z,8.75
2022-10-18T12:48:45.373Z,11.38
2022-10-18T12:51:30.840Z,15.60
2022-10-18T12:54:19.101Z,9.90
2022-10-18T12:57:26.495Z,12.13
2022-10-18T13:00:32.068Z,11.05
2022-10-18T13:03:20.783Z,11.07
2022-10-18T13:06:06.900Z,15.50
2022-10-18T13:09:19.536Z,13.02
2022-10-18T13:12:11.266Z,13.00
2022-10-18T13:15:24.650Z,13.98
2022-10-18T13:18:26.289Z,22.58
2022-10-18T13:22:10.558Z,20.67
2022-10-18T13:25:33.886Z,13.02
2022-10-18T13:28:41.178Z,15.23
2022-10-18T13:31:46.089Z,14.48
2022-10-18T13:34:35.440Z,15.13
2022-10-18T13:37:24.450Z,13.13
2022-10-18T13:40:24.239Z,10.48
2022-10-18T13:43:51.556Z,13.32
2022-10-18T13:46:37.713Z,11.55
2022-10-18T13:49:34.957Z,9.73
2022-10-18T13:52:46.774Z,14.25
2022-10-18T13:55:45.153Z,13.00
2022-10-18T13:59:05.874Z,11.75
2022-10-18T14:02:22.386Z,14.30
2022-10-18T14:05:25.007Z,15.20
2022-10-18T14:08:52.388Z,13.35
2022-10-18T14:12:10.274Z,15.02
2022-10-18T14:15:07.350Z,13.85
2022-10-18T14:18:15.232Z,13.82
2022-10-18T14:21:13.920Z,15.93
2022-10-18T14:23:59.916Z,15.50
2022-10-18T14:26:45.532Z,24.75
2022-10-18T14:29:31.153Z,18.75
2022-10-18T14:32:28.154Z,15.77
2022-10-18T14:35:33.639Z,15.25
2022-10-18T14:38:22.259Z,14.85
2022-10-18T14:41:20.413Z,14.63
2022-10-18T14:44:24.664Z,13.48
2022-10-18T14:47:24.790Z,18.45
2022-10-18T14:50:30.387Z,19.30
2022-10-18T14:53:25.109Z,21.58
2022-10-18T14:56:25.762Z,18.85
2022-10-18T14:59:44.279Z,17.00
2022-10-18T15:02:32.302Z,18.63
2022-10-18T15:05:23.581Z,17.77
2022-10-18T15:08:09.866Z,16.98
2022-10-18T15:10:55.655Z,16.05
2022-10-18T15:14:00.640Z,17.48
2022-10-18T15:16:48.589Z,15.57
2022-10-18T15:19:39.172Z,16.77
2022-10-18T15:22:31.859Z,21.20
2022-10-18T15:25:21.907Z,19.65
2022-10-18T15:28:43.492Z,15.38
2022-10-18T15:31:44.738Z,23.83
2022-10-18T15:34:30.710Z,20.02
2022-10-18T15:37:41.527Z,22.25
2022-10-18T15:40:36.176Z,23.38
2022-10-18T15:43:27.879Z,20.70
2022-10-18T15:46:29.948Z,22.83
2022-10-18T15:49:44.764Z,29.98
2022-10-18T15:52:39.519Z,25.55
2022-10-18T15:55:31.183Z,25.55
2022-10-18T15:58:21.358Z,18.58
2022-10-18T16:01:21.839Z,19.88
2022-10-18T16:04:22.937Z,24.05
2022-10-18T16:07:11.501Z,20.75
2022-10-18T16:09:56.636Z,23.77
2022-10-18T16:12:42.222Z,21.13
2022-10-18T16:15:27.354Z,26.98
2022-10-18T16:18:18.271Z,24.05
2022-10-18T16:21:03.704Z,25.58
2022-10-18T16:23:49.796Z,35.72
2022-10-18T16:26:36.055Z,26.70
2022-10-18T16:29:25.759Z,34.65
2022-10-18T16:32:11.062Z,23.88
2022-10-18T16:34:56.336Z,26.85
2022-10-18T16:37:41.763Z,39.50
2022-10-18T16:40:27.631Z,27.38
2022-10-18T16:43:13.055Z,31.55
2022-10-18T16:45:58.647Z,31.38
2022-10-18T16:48:44.981Z,36.72
2022-10-18T16:51:30.390Z,34.15
2022-10-18T16:54:15.484Z,31.70
2022-10-18T16:57:00.579Z,29.27
2022-10-18T16:59:46.127Z,33.75
2022-10-18T17:02:31.837Z,29.45
2022-10-18T17:05:18.590Z,32.00
2022-10-18T17:08:03.713Z,28.75
2022-10-18T17:10:52.870Z,34.08
2022-10-18T17:13:38.600Z,29.58
2022-10-18T17:16:26.578Z,33.90
2022-10-18T17:19:12.078Z,34.35
2022-10-18T17:22:02.276Z,32.03
2022-10-18T17:24:47.927Z,35.70
2022-10-18T17:27:33.177Z,31.02
2022-10-18T17:30:18.965Z,33.67
2022-10-18T17:33:04.343Z,59.95
2022-10-18T17:35:49.518Z,29.95
2022-10-18T17:38:34.927Z,27.83
2022-10-18T17:41:20.688Z,35.42
2022-10-18T17:44:06.222Z,30.30
2022-10-18T17:46:51.642Z,34.22
2022-10-18T17:49:37.225Z,37.20
2022-10-18T17:52:27.099Z,26.98
2022-10-18T17:57:58.190Z,32.72
2022-10-18T18:00:44.712Z,28.58
2022-10-18T18:03:30.013Z,34.53
2022-10-18T18:06:21.549Z,23.92
2022-10-18T18:09:10.379Z,31.42
2022-10-18T18:11:56.166Z,30.23
2022-10-18T18:14:41.516Z,33.00
2022-10-18T18:17:33.970Z,34.28
2022-10-18T18:20:20.575Z,36.75
2022-10-18T18:23:05.718Z,30.70
2022-10-18T18:25:58.135Z,37.80
2022-10-18T18:28:44.264Z,33.75
2022-10-18T18:31:32.449Z,32.65
2022-10-18T18:34:22.701Z,30.70
2022-10-18T18:37:08.648Z,27.55
2022-10-18T18:39:54.102Z,36.80
2022-10-18T18:42:39.637Z,28.85
2022-10-18T18:45:24.808Z,37.60
2022-10-18T18:48:10.399Z,29.75
2022-10-18T18:50:55.485Z,20.85
2022-10-18T18:53:42.978Z,20.60
2022-10-18T18:56:31.365Z,17.70
2022-10-18T18:59:20.066Z,31.20
2022-10-18T19:02:05.218Z,21.23
2022-10-18T19:04:51.318Z,22.48
2022-10-18T19:07:36.607Z,22.45
2022-10-18T19:10:21.719Z,17.98
2022-10-18T19:13:07.131Z,26.80
2022-10-18T19:15:52.541Z,17.70
2022-10-18T19:18:38.126Z,21.85
2022-10-18T19:21:25.308Z,18.42
2022-10-18T19:24:10.765Z,18.20
2022-10-18T19:27:01.773Z,23.35
2022-10-18T19:29:48.629Z,22.52
2022-10-18T19:32:33.684Z,17.55
2022-10-18T19:35:19.041Z,18.58
2022-10-18T19:38:04.246Z,18.92
2022-10-18T19:40:53.627Z,14.52
2022-10-18T19:46:24.970Z,20.50
2022-10-18T19:49:10.429Z,20.27
2022-10-18T19:51:56.485Z,14.23
2022-10-18T19:54:41.868Z,19.92
2022-10-18T19:57:27.166Z,16.95
2022-10-18T20:00:16.106Z,13.38
2022-10-18T20:03:04.284Z,12.73
2022-10-18T20:06:01.221Z,13.93
2022-10-18T20:08:49.868Z,10.55
2022-10-18T20:11:35.745Z,17.23
2022-10-18T20:14:21.311Z,20.00
2022-10-18T20:17:06.811Z,14.02
2022-10-18T20:19:52.035Z,14.65
2022-10-18T20:22:37.711Z,13.65
2022-10-18T20:25:29.487Z,20.20
2022-10-18T20:28:43.285Z,18.27
2022-10-18T20:31:35.573Z,17.35
2022-10-18T20:34:28.624Z,14.93
2022-10-18T20:37:16.350Z,16.02
2022-10-18T20:40:02.047Z,20.05
2022-10-18T20:42:47.215Z,21.73
2022-10-18T20:45:32.689Z,18.13
2022-10-18T20:48:18.159Z,11.57
2022-10-18T20:51:09.504Z,17.60
2022-10-18T20:53:55.048Z,10.77
2022-10-18T20:56:40.668Z,13.07
2022-10-18T20:59:26.201Z,18.67
2022-10-18T21:02:14.728Z,15.60
2022-10-18T21:05:05.364Z,18.08
2022-10-18T21:07:50.490Z,17.77
2022-10-18T21:10:35.928Z,13.75
2022-10-18T21:13:20.980Z,17.10
2022-10-18T21:16:07.633Z,12.38
2022-10-18T21:18:53.700Z,16.17
2022-10-18T21:21:43.243Z,13.05
2022-10-18T21:24:29.879Z,14.20
2022-10-18T21:27:15.356Z,25.05
2022-10-18T21:30:00.660Z,24.45
2022-10-18T21:32:46.076Z,14.57
2022-10-18T21:35:35.547Z,15.13
2022-10-18T21:38:20.690Z,14.45
2022-10-18T21:41:13.700Z,17.50
2022-10-18T21:43:59.269Z,15.35
2022-10-18T21:46:46.521Z,27.63
2022-10-18T21:49:35.003Z,13.90
2022-10-18T21:52:20.585Z,16.93
2022-10-18T21:55:07.192Z,12.55
2022-10-18T21:57:52.712Z,15.55
2022-10-18T22:00:39.016Z,15.10
2022-10-18T22:03:24.901Z,20.60
2022-10-18T22:06:14.447Z,12.60
2022-10-18T22:09:04.588Z,13.23
2022-10-18T22:12:11.605Z,17.38
2022-10-18T22:14:57.122Z,12.50
2022-10-18T22:17:42.286Z,14.63
2022-10-18T22:20:27.698Z,14.32
2022-10-18T22:23:16.059Z,15.35
2022-10-18T22:26:09.067Z,14.23
2022-10-18T22:29:04.376Z,17.42
2022-10-18T22:31:52.877Z,14.00
2022-10-18T22:34:39.351Z,13.18
2022-10-18T22:37:27.698Z,11.63
2022-10-18T22:40:12.898Z,11.38
2022-10-18T22:42:58.655Z,15.32
2022-10-18T22:45:43.691Z,19.25
2022-10-18T22:48:29.542Z,7.43
2022-10-18T22:51:15.349Z,10.82
2022-10-18T22:54:00.938Z,14.30
2022-10-18T22:56:46.227Z,16.10
2022-10-18T23:00:06.600Z,9.15
2022-10-18T23:02:51.734Z,12.02
2022-10-18T23:05:45.258Z,10.70
2022-10-18T23:08:31.403Z,13.45
2022-10-18T23:11:17.546Z,12.15
2022-10-18T23:14:03.991Z,14.32
2022-10-18T23:16:52.026Z,10.85
2022-10-18T23:19:37.266Z,10.13
2022-10-18T23:22:22.473Z,15.48
2022-10-18T23:25:10.244Z,7.50
2022-10-18T23:27:57.354Z,13.98
2022-10-18T23:30:45.377Z,12.68
2022-10-18T23:33:36.935Z,12.10
2022-10-18T23:36:23.199Z,15.95
2022-10-18T23:39:08.474Z,9.57
2022-10-18T23:41:53.777Z,13.93
2022-10-18T23:44:39.179Z,16.67
2022-10-18T23:47:24.674Z,12.55
2022-10-18T23:50:10.352Z,14.15
2022-10-18T23:52:55.493Z,10.65
2022-10-18T23:55:53.675Z,11.68
2022-10-18T23:58:39.592Z,15.20
